Aérodrome :
LOGIN :

S'inscrire | Disclaimer

   EN    FR    IT 

 










Légende :    VFR   VFR Marginal   IFR   IFR Intensif   IFR Très Intensif
Visi : 
Plafond : 
>= 8 km
>= 3000ft
5 à 8 km
1000 à 3000 ft
1500m à 5 km
500 à 1000 ft
800 à 1500m
200 à 500 ft
< 800m
< 200 ft
Symboles :   Orages  Brouillard  Fortes neiges  Fortes précipitations  Vent > 20 kt
SIGMETs :   Divers  Orages  Givrage  Turbulence  Onde Orograph.  Cendres Volcan.







- Altitude de l'aérodrome : 375 ft
- Code IATA : MST


EHBK - Maastricht Aachen

DERNIER METAR :
  • 231625Z AUTO 20012KT 170V230 9999 NSC 18/13 Q1013 NOSIG

METARs EXPIRÉS :
  • 231555Z AUTO 22015KT 9999 NSC 17/12 Q1014 NOSIG
  • 231525Z AUTO 20014KT 9999 SCT032 BKN036 BKN040 18/13 Q1014 NOSIG
  • 231455Z AUTO 22015KT 9999 FEW033 18/12 Q1014 NOSIG
  • 231425Z AUTO 23013KT 190V260 9999 FEW032 SCT038 19/12 Q1014 NOSIG
  • 231355Z AUTO 22018KT 190V250 9999 SCT030 BKN036 BKN043 19/12 Q1014 NOSIG

TAF TAF EHBK
Valide du 23 à 12h jusqu'au 24 à 18h UTC


231111Z 2312/2418 22012KT 9999 SCT030
PROB40
TEMPO 2312/2319 22012G22KT 6000 SHRA SCT025CB BKN030
BECMG 2319/2322 19005KT
TEMPO 2400/2412 4000 RA SHRA SCT015CB BKN020
Pas de NOTAMs connus pour ce terrain.



MET'MAP, la Météo Aéronautique d'un coup d'oeil ! - Copyright ORBIFLY Décembre 2007 - Disclaimer

ORBIFLY MET'MAP TEAM :

Programmation & Développement : Alexandra Zaïnal
Conception & Développement : Baudouin d'Aumeries
Co-Programmation & Développement : Marc-Olivier Méhu
Soutien technique & logistique : Manuel Goepfert

Contact : metmap@orbifly.com




SOURCES & CREDITS :

   NOAA